sensor_id;sensor_type;location;lat;lon;timestamp;temperature;humidity
4763;DHT22;2395;50.738;7.122;2022-07-29T00:01:49;20.50;99.90
4763;DHT22;2395;50.738;7.122;2022-07-29T00:04:17;20.50;99.90
4763;DHT22;2395;50.738;7.122;2022-07-29T00:06:45;20.50;99.90
4763;DHT22;2395;50.738;7.122;2022-07-29T00:09:12;20.50;99.90
4763;DHT22;2395;50.738;7.122;2022-07-29T00:11:40;20.40;99.90
4763;DHT22;2395;50.738;7.122;2022-07-29T00:14:08;20.40;99.90
4763;DHT22;2395;50.738;7.122;2022-07-29T00:16:35;20.30;99.90
4763;DHT22;2395;50.738;7.122;2022-07-29T00:19:02;20.30;99.90
4763;DHT22;2395;50.738;7.122;2022-07-29T00:21:30;20.30;99.90
4763;DHT22;2395;50.738;7.122;2022-07-29T00:23:56;20.30;99.90
4763;DHT22;2395;50.738;7.122;2022-07-29T00:26:23;20.30;99.90
4763;DHT22;2395;50.738;7.122;2022-07-29T00:28:54;20.30;99.90
4763;DHT22;2395;50.738;7.122;2022-07-29T00:31:21;20.30;99.90
4763;DHT22;2395;50.738;7.122;2022-07-29T00:33:48;20.20;99.90
4763;DHT22;2395;50.738;7.122;2022-07-29T00:36:15;20.10;99.90
4763;DHT22;2395;50.738;7.122;2022-07-29T00:38:41;20.00;99.90
4763;DHT22;2395;50.738;7.122;2022-07-29T00:41:10;20.00;99.90
4763;DHT22;2395;50.738;7.122;2022-07-29T00:43:37;20.00;99.90
4763;DHT22;2395;50.738;7.122;2022-07-29T00:46:06;19.90;99.90
4763;DHT22;2395;50.738;7.122;2022-07-29T00:48:33;19.80;99.90
4763;DHT22;2395;50.738;7.122;2022-07-29T00:51:02;19.80;99.90
4763;DHT22;2395;50.738;7.122;2022-07-29T00:53:30;19.80;99.90
4763;DHT22;2395;50.738;7.122;2022-07-29T00:55:58;19.70;99.90
4763;DHT22;2395;50.738;7.122;2022-07-29T00:58:26;19.70;99.90
4763;DHT22;2395;50.738;7.122;2022-07-29T01:00:54;19.70;99.90
4763;DHT22;2395;50.738;7.122;2022-07-29T01:03:22;19.80;99.90
4763;DHT22;2395;50.738;7.122;2022-07-29T01:05:49;19.70;99.90
4763;DHT22;2395;50.738;7.122;2022-07-29T01:08:17;19.70;99.90
4763;DHT22;2395;50.738;7.122;2022-07-29T01:10:47;19.70;99.90
4763;DHT22;2395;50.738;7.122;2022-07-29T01:13:15;19.70;99.90
4763;DHT22;2395;50.738;7.122;2022-07-29T01:15:45;19.60;99.90
4763;DHT22;2395;50.738;7.122;2022-07-29T01:18:18;19.60;99.90
4763;DHT22;2395;50.738;7.122;2022-07-29T01:21:06;19.60;99.90
4763;DHT22;2395;50.738;7.122;2022-07-29T01:24:07;19.60;99.90
4763;DHT22;2395;50.738;7.122;2022-07-29T01:26:47;19.50;99.90
4763;DHT22;2395;50.738;7.122;2022-07-29T01:29:23;19.40;99.90
4763;DHT22;2395;50.738;7.122;2022-07-29T01:31:56;19.50;99.90
4763;DHT22;2395;50.738;7.122;2022-07-29T01:34:33;19.40;99.90
4763;DHT22;2395;50.738;7.122;2022-07-29T01:37:19;19.40;99.90
4763;DHT22;2395;50.738;7.122;2022-07-29T01:39:51;19.40;99.90
4763;DHT22;2395;50.738;7.122;2022-07-29T01:42:26;19.30;99.90
4763;DHT22;2395;50.738;7.122;2022-07-29T01:45:03;19.30;99.90
4763;DHT22;2395;50.738;7.122;2022-07-29T01:47:42;19.30;99.90
4763;DHT22;2395;50.738;7.122;2022-07-29T01:50:16;19.30;99.90
4763;DHT22;2395;50.738;7.122;2022-07-29T01:52:49;19.30;99.90
4763;DHT22;2395;50.738;7.122;2022-07-29T01:55:22;19.30;99.90
4763;DHT22;2395;50.738;7.122;2022-07-29T01:57:56;19.20;99.90
4763;DHT22;2395;50.738;7.122;2022-07-29T02:00:27;19.10;99.90
4763;DHT22;2395;50.738;7.122;2022-07-29T02:02:58;18.90;99.90
4763;DHT22;2395;50.738;7.122;2022-07-29T02:05:30;18.80;99.90
4763;DHT22;2395;50.738;7.122;2022-07-29T02:08:02;18.90;99.90
4763;DHT22;2395;50.738;7.122;2022-07-29T02:10:33;19.00;99.90
4763;DHT22;2395;50.738;7.122;2022-07-29T02:13:02;19.00;99.90
4763;DHT22;2395;50.738;7.122;2022-07-29T02:15:34;19.10;99.90
4763;DHT22;2395;50.738;7.122;2022-07-29T02:18:07;19.00;99.90
4763;DHT22;2395;50.738;7.122;2022-07-29T02:20:36;18.90;99.90
4763;DHT22;2395;50.738;7.122;2022-07-29T02:23:06;18.90;99.90
4763;DHT22;2395;50.738;7.122;2022-07-29T02:25:37;18.80;99.90
4763;DHT22;2395;50.738;7.122;2022-07-29T02:28:06;18.70;99.90
4763;DHT22;2395;50.738;7.122;2022-07-29T02:30:36;18.70;99.90
4763;DHT22;2395;50.738;7.122;2022-07-29T02:33:08;18.60;99.90
4763;DHT22;2395;50.738;7.122;2022-07-29T02:35:40;18.60;99.90
4763;DHT22;2395;50.738;7.122;2022-07-29T02:38:10;18.60;99.90
4763;DHT22;2395;50.738;7.122;2022-07-29T02:40:58;18.60;99.90
4763;DHT22;2395;50.738;7.122;2022-07-29T02:43:28;18.60;99.90
4763;DHT22;2395;50.738;7.122;2022-07-29T02:46:00;18.60;99.90
4763;DHT22;2395;50.738;7.122;2022-07-29T02:48:36;18.60;99.90
4763;DHT22;2395;50.738;7.122;2022-07-29T02:51:08;18.60;99.90
4763;DHT22;2395;50.738;7.122;2022-07-29T02:53:42;18.60;99.90
4763;DHT22;2395;50.738;7.122;2022-07-29T02:56:13;18.60;99.90
4763;DHT22;2395;50.738;7.122;2022-07-29T02:58:46;18.60;99.90
4763;DHT22;2395;50.738;7.122;2022-07-29T03:01:22;18.60;99.90
4763;DHT22;2395;50.738;7.122;2022-07-29T03:03:52;18.60;99.90
4763;DHT22;2395;50.738;7.122;2022-07-29T03:06:22;18.60;99.90
4763;DHT22;2395;50.738;7.122;2022-07-29T03:08:52;18.50;99.90
4763;DHT22;2395;50.738;7.122;2022-07-29T03:11:22;18.50;99.90
4763;DHT22;2395;50.738;7.122;2022-07-29T03:13:50;18.30;99.90
4763;DHT22;2395;50.738;7.122;2022-07-29T03:16:18;18.10;99.90
4763;DHT22;2395;50.738;7.122;2022-07-29T03:18:51;18.00;99.90
4763;DHT22;2395;50.738;7.122;2022-07-29T03:21:18;18.00;99.90
4763;DHT22;2395;50.738;7.122;2022-07-29T03:23:45;18.00;99.90
4763;DHT22;2395;50.738;7.122;2022-07-29T03:26:13;18.20;99.90
4763;DHT22;2395;50.738;7.122;2022-07-29T03:28:40;18.30;99.90
4763;DHT22;2395;50.738;7.122;2022-07-29T03:31:07;18.30;99.90
4763;DHT22;2395;50.738;7.122;2022-07-29T03:33:36;18.30;99.90
4763;DHT22;2395;50.738;7.122;2022-07-29T03:36:03;18.40;99.90
4763;DHT22;2395;50.738;7.122;2022-07-29T03:38:30;18.40;99.90
4763;DHT22;2395;50.738;7.122;2022-07-29T03:41:03;18.30;99.90
4763;DHT22;2395;50.738;7.122;2022-07-29T03:43:37;18.30;99.90
4763;DHT22;2395;50.738;7.122;2022-07-29T03:46:07;18.30;99.90
4763;DHT22;2395;50.738;7.122;2022-07-29T03:48:41;18.30;99.90
4763;DHT22;2395;50.738;7.122;2022-07-29T03:51:11;18.20;99.90
4763;DHT22;2395;50.738;7.122;2022-07-29T03:53:39;18.20;99.90
4763;DHT22;2395;50.738;7.122;2022-07-29T03:56:09;18.20;99.90
4763;DHT22;2395;50.738;7.122;2022-07-29T03:58:37;18.30;99.90
4763;DHT22;2395;50.738;7.122;2022-07-29T04:01:06;18.40;99.90
4763;DHT22;2395;50.738;7.122;2022-07-29T04:03:34;18.30;99.90
4763;DHT22;2395;50.738;7.122;2022-07-29T04:06:04;18.20;99.90
4763;DHT22;2395;50.738;7.122;2022-07-29T04:08:32;18.20;99.90
4763;DHT22;2395;50.738;7.122;2022-07-29T04:11:00;18.20;99.90
4763;DHT22;2395;50.738;7.122;2022-07-29T04:13:28;18.30;99.90
4763;DHT22;2395;50.738;7.122;2022-07-29T04:15:55;18.20;99.90
4763;DHT22;2395;50.738;7.122;2022-07-29T04:18:22;18.20;99.90
4763;DHT22;2395;50.738;7.122;2022-07-29T04:20:50;18.20;99.90
4763;DHT22;2395;50.738;7.122;2022-07-29T04:23:18;18.20;99.90
4763;DHT22;2395;50.738;7.122;2022-07-29T04:25:45;18.30;99.90
4763;DHT22;2395;50.738;7.122;2022-07-29T04:28:12;18.40;99.90
4763;DHT22;2395;50.738;7.122;2022-07-29T04:30:39;18.50;99.90
4763;DHT22;2395;50.738;7.122;2022-07-29T04:33:07;18.80;99.90
4763;DHT22;2395;50.738;7.122;2022-07-29T04:35:35;19.10;99.90
4763;DHT22;2395;50.738;7.122;2022-07-29T04:38:05;19.30;99.90
4763;DHT22;2395;50.738;7.122;2022-07-29T04:40:34;19.30;99.90
4763;DHT22;2395;50.738;7.122;2022-07-29T04:43:01;19.40;99.90
4763;DHT22;2395;50.738;7.122;2022-07-29T04:45:28;19.40;99.90
4763;DHT22;2395;50.738;7.122;2022-07-29T04:47:55;19.40;99.90
4763;DHT22;2395;50.738;7.122;2022-07-29T04:50:23;19.40;99.90
4763;DHT22;2395;50.738;7.122;2022-07-29T04:52:50;19.30;99.90
4763;DHT22;2395;50.738;7.122;2022-07-29T04:55:17;19.30;99.90
4763;DHT22;2395;50.738;7.122;2022-07-29T04:57:45;19.60;99.90
4763;DHT22;2395;50.738;7.122;2022-07-29T05:00:13;19.50;99.90
4763;DHT22;2395;50.738;7.122;2022-07-29T05:02:40;19.40;99.90
4763;DHT22;2395;50.738;7.122;2022-07-29T05:05:09;19.30;99.90
4763;DHT22;2395;50.738;7.122;2022-07-29T05:07:55;19.30;99.90
4763;DHT22;2395;50.738;7.122;2022-07-29T05:10:23;19.20;99.90
4763;DHT22;2395;50.738;7.122;2022-07-29T05:12:51;19.00;99.90
4763;DHT22;2395;50.738;7.122;2022-07-29T05:15:18;19.10;99.90
4763;DHT22;2395;50.738;7.122;2022-07-29T05:17:45;19.10;99.90
4763;DHT22;2395;50.738;7.122;2022-07-29T05:20:12;19.00;99.90
4763;DHT22;2395;50.738;7.122;2022-07-29T05:22:39;19.10;99.90
4763;DHT22;2395;50.738;7.122;2022-07-29T05:25:07;19.20;99.90
4763;DHT22;2395;50.738;7.122;2022-07-29T05:27:35;19.40;99.90
4763;DHT22;2395;50.738;7.122;2022-07-29T05:30:05;19.60;99.90
4763;DHT22;2395;50.738;7.122;2022-07-29T05:32:33;19.80;99.90
4763;DHT22;2395;50.738;7.122;2022-07-29T05:35:00;19.90;99.90
4763;DHT22;2395;50.738;7.122;2022-07-29T05:37:27;19.60;99.90
4763;DHT22;2395;50.738;7.122;2022-07-29T05:39:54;19.60;99.90
4763;DHT22;2395;50.738;7.122;2022-07-29T05:42:21;19.60;99.90
4763;DHT22;2395;50.738;7.122;2022-07-29T05:44:48;19.60;99.90
4763;DHT22;2395;50.738;7.122;2022-07-29T05:47:16;19.70;99.90
4763;DHT22;2395;50.738;7.122;2022-07-29T05:49:43;19.70;99.90
4763;DHT22;2395;50.738;7.122;2022-07-29T05:52:11;19.70;99.90
4763;DHT22;2395;50.738;7.122;2022-07-29T05:54:40;19.60;99.90
4763;DHT22;2395;50.738;7.122;2022-07-29T05:57:15;19.60;99.90
4763;DHT22;2395;50.738;7.122;2022-07-29T05:59:42;19.40;99.90
4763;DHT22;2395;50.738;7.122;2022-07-29T06:02:09;19.50;99.90
4763;DHT22;2395;50.738;7.122;2022-07-29T06:04:38;19.50;99.90
4763;DHT22;2395;50.738;7.122;2022-07-29T06:07:05;19.40;99.90
4763;DHT22;2395;50.738;7.122;2022-07-29T06:09:32;19.30;99.90
4763;DHT22;2395;50.738;7.122;2022-07-29T06:12:00;19.40;99.90
4763;DHT22;2395;50.738;7.122;2022-07-29T06:14:27;19.30;99.90
4763;DHT22;2395;50.738;7.122;2022-07-29T06:16:54;19.30;99.90
4763;DHT22;2395;50.738;7.122;2022-07-29T06:19:22;19.30;99.90
4763;DHT22;2395;50.738;7.122;2022-07-29T06:21:50;19.20;99.90
4763;DHT22;2395;50.738;7.122;2022-07-29T06:24:17;19.10;99.90
4763;DHT22;2395;50.738;7.122;2022-07-29T06:26:44;19.00;99.90
4763;DHT22;2395;50.738;7.122;2022-07-29T06:29:11;18.90;99.90
4763;DHT22;2395;50.738;7.122;2022-07-29T06:31:39;18.90;99.90
4763;DHT22;2395;50.738;7.122;2022-07-29T06:34:06;18.90;99.90
4763;DHT22;2395;50.738;7.122;2022-07-29T06:36:35;19.00;99.90
4763;DHT22;2395;50.738;7.122;2022-07-29T06:39:05;19.10;99.90
4763;DHT22;2395;50.738;7.122;2022-07-29T06:41:33;19.40;99.90
4763;DHT22;2395;50.738;7.122;2022-07-29T06:44:00;19.60;99.90
4763;DHT22;2395;50.738;7.122;2022-07-29T06:46:28;19.80;99.90
4763;DHT22;2395;50.738;7.122;2022-07-29T06:48:55;19.90;99.90
4763;DHT22;2395;50.738;7.122;2022-07-29T06:51:22;20.10;99.90
4763;DHT22;2395;50.738;7.122;2022-07-29T06:53:49;20.30;99.90
4763;DHT22;2395;50.738;7.122;2022-07-29T06:56:19;20.50;99.90
4763;DHT22;2395;50.738;7.122;2022-07-29T06:58:45;20.50;99.90
4763;DHT22;2395;50.738;7.122;2022-07-29T07:01:12;20.80;99.90
4763;DHT22;2395;50.738;7.122;2022-07-29T07:03:39;20.90;99.90
4763;DHT22;2395;50.738;7.122;2022-07-29T07:06:07;20.80;99.90
4763;DHT22;2395;50.738;7.122;2022-07-29T07:08:35;20.90;99.90
4763;DHT22;2395;50.738;7.122;2022-07-29T07:11:02;20.80;99.90
4763;DHT22;2395;50.738;7.122;2022-07-29T07:13:30;20.90;99.90
4763;DHT22;2395;50.738;7.122;2022-07-29T07:16:00;21.00;99.90
4763;DHT22;2395;50.738;7.122;2022-07-29T07:18:27;21.10;99.90
4763;DHT22;2395;50.738;7.122;2022-07-29T07:20:54;21.30;99.90
4763;DHT22;2395;50.738;7.122;2022-07-29T07:23:22;21.30;99.90
4763;DHT22;2395;50.738;7.122;2022-07-29T07:25:49;21.40;99.90
4763;DHT22;2395;50.738;7.122;2022-07-29T07:28:16;21.50;99.90
4763;DHT22;2395;50.738;7.122;2022-07-29T07:30:45;21.60;99.90
4763;DHT22;2395;50.738;7.122;2022-07-29T07:33:12;21.70;99.90
4763;DHT22;2395;50.738;7.122;2022-07-29T07:35:40;21.80;99.90
4763;DHT22;2395;50.738;7.122;2022-07-29T07:38:07;21.60;99.90
4763;DHT22;2395;50.738;7.122;2022-07-29T07:40:34;21.60;99.90
4763;DHT22;2395;50.738;7.122;2022-07-29T07:43:01;21.80;99.90
4763;DHT22;2395;50.738;7.122;2022-07-29T07:45:28;21.80;99.90
4763;DHT22;2395;50.738;7.122;2022-07-29T07:47:59;21.80;99.90
4763;DHT22;2395;50.738;7.122;2022-07-29T07:50:26;21.90;99.90
4763;DHT22;2395;50.738;7.122;2022-07-29T07:52:55;21.80;99.90
4763;DHT22;2395;50.738;7.122;2022-07-29T07:55:24;21.60;99.90
4763;DHT22;2395;50.738;7.122;2022-07-29T07:57:51;21.50;99.90
4763;DHT22;2395;50.738;7.122;2022-07-29T08:00:18;21.60;99.90
4763;DHT22;2395;50.738;7.122;2022-07-29T08:02:46;22.10;99.90
4763;DHT22;2395;50.738;7.122;2022-07-29T08:05:14;22.30;99.90
4763;DHT22;2395;50.738;7.122;2022-07-29T08:07:44;22.60;99.90
4763;DHT22;2395;50.738;7.122;2022-07-29T08:10:12;22.80;99.90
4763;DHT22;2395;50.738;7.122;2022-07-29T08:12:39;22.80;99.90
4763;DHT22;2395;50.738;7.122;2022-07-29T08:15:08;22.80;99.90
4763;DHT22;2395;50.738;7.122;2022-07-29T08:17:35;22.90;99.90
4763;DHT22;2395;50.738;7.122;2022-07-29T08:20:03;23.10;99.90
4763;DHT22;2395;50.738;7.122;2022-07-29T08:22:32;23.30;99.90
4763;DHT22;2395;50.738;7.122;2022-07-29T08:24:59;23.30;99.90
4763;DHT22;2395;50.738;7.122;2022-07-29T08:27:26;23.10;99.90
4763;DHT22;2395;50.738;7.122;2022-07-29T08:29:56;23.20;99.90
4763;DHT22;2395;50.738;7.122;2022-07-29T08:32:23;23.40;99.90
4763;DHT22;2395;50.738;7.122;2022-07-29T08:34:50;23.30;99.90
4763;DHT22;2395;50.738;7.122;2022-07-29T08:37:17;23.40;99.90
4763;DHT22;2395;50.738;7.122;2022-07-29T08:39:45;23.40;99.90
4763;DHT22;2395;50.738;7.122;2022-07-29T08:42:12;23.20;99.90
4763;DHT22;2395;50.738;7.122;2022-07-29T08:44:40;23.30;99.90
4763;DHT22;2395;50.738;7.122;2022-07-29T08:47:07;23.10;99.90
4763;DHT22;2395;50.738;7.122;2022-07-29T08:49:34;23.00;99.90
4763;DHT22;2395;50.738;7.122;2022-07-29T08:52:02;23.40;99.90
4763;DHT22;2395;50.738;7.122;2022-07-29T08:54:29;23.60;99.90
4763;DHT22;2395;50.738;7.122;2022-07-29T08:56:58;23.90;99.90
4763;DHT22;2395;50.738;7.122;2022-07-29T08:59:27;23.90;99.90
4763;DHT22;2395;50.738;7.122;2022-07-29T09:01:57;23.90;99.90
4763;DHT22;2395;50.738;7.122;2022-07-29T09:04:29;24.00;99.90
4763;DHT22;2395;50.738;7.122;2022-07-29T09:07:00;24.20;99.90
4763;DHT22;2395;50.738;7.122;2022-07-29T09:09:33;24.40;99.90
4763;DHT22;2395;50.738;7.122;2022-07-29T09:12:01;24.80;99.90
4763;DHT22;2395;50.738;7.122;2022-07-29T09:14:29;24.70;99.90
4763;DHT22;2395;50.738;7.122;2022-07-29T09:16:56;24.50;99.90
4763;DHT22;2395;50.738;7.122;2022-07-29T09:19:27;24.60;99.90
4763;DHT22;2395;50.738;7.122;2022-07-29T09:21:57;24.70;99.90
4763;DHT22;2395;50.738;7.122;2022-07-29T09:24:26;24.60;99.90
4763;DHT22;2395;50.738;7.122;2022-07-29T09:27:08;24.60;99.90
4763;DHT22;2395;50.738;7.122;2022-07-29T09:29:38;24.60;99.90
4763;DHT22;2395;50.738;7.122;2022-07-29T09:32:09;24.60;99.90
4763;DHT22;2395;50.738;7.122;2022-07-29T09:34:37;24.80;99.90
4763;DHT22;2395;50.738;7.122;2022-07-29T09:37:04;25.00;99.90
4763;DHT22;2395;50.738;7.122;2022-07-29T09:39:33;24.90;99.90
4763;DHT22;2395;50.738;7.122;2022-07-29T09:42:04;24.80;99.90
4763;DHT22;2395;50.738;7.122;2022-07-29T09:44:43;24.90;99.90
4763;DHT22;2395;50.738;7.122;2022-07-29T09:47:14;25.10;99.90
4763;DHT22;2395;50.738;7.122;2022-07-29T09:49:59;25.20;99.90
4763;DHT22;2395;50.738;7.122;2022-07-29T09:52:27;25.20;99.90
4763;DHT22;2395;50.738;7.122;2022-07-29T09:55:05;25.10;99.90
4763;DHT22;2395;50.738;7.122;2022-07-29T09:57:34;24.90;99.90
4763;DHT22;2395;50.738;7.122;2022-07-29T10:00:04;25.00;99.90
4763;DHT22;2395;50.738;7.122;2022-07-29T10:02:35;25.20;99.90
4763;DHT22;2395;50.738;7.122;2022-07-29T10:05:05;25.00;99.90
4763;DHT22;2395;50.738;7.122;2022-07-29T10:07:46;24.90;99.90
4763;DHT22;2395;50.738;7.122;2022-07-29T10:10:22;24.90;99.90
4763;DHT22;2395;50.738;7.122;2022-07-29T10:12:54;25.00;99.90
4763;DHT22;2395;50.738;7.122;2022-07-29T10:15:24;25.00;99.90
4763;DHT22;2395;50.738;7.122;2022-07-29T10:17:53;25.00;99.90
4763;DHT22;2395;50.738;7.122;2022-07-29T10:20:24;25.10;99.90
4763;DHT22;2395;50.738;7.122;2022-07-29T10:22:54;25.20;99.90
4763;DHT22;2395;50.738;7.122;2022-07-29T10:25:23;25.40;99.90
4763;DHT22;2395;50.738;7.122;2022-07-29T10:27:52;25.50;99.90
4763;DHT22;2395;50.738;7.122;2022-07-29T10:30:22;25.80;99.90
4763;DHT22;2395;50.738;7.122;2022-07-29T10:33:10;25.90;99.90
4763;DHT22;2395;50.738;7.122;2022-07-29T10:36:07;25.70;99.90
4763;DHT22;2395;50.738;7.122;2022-07-29T10:38:52;25.90;99.90
4763;DHT22;2395;50.738;7.122;2022-07-29T10:41:36;25.80;99.90
4763;DHT22;2395;50.738;7.122;2022-07-29T10:44:18;26.30;99.90
4763;DHT22;2395;50.738;7.122;2022-07-29T10:46:48;26.40;99.90
4763;DHT22;2395;50.738;7.122;2022-07-29T10:49:17;26.80;99.90
4763;DHT22;2395;50.738;7.122;2022-07-29T10:52:00;26.70;99.90
4763;DHT22;2395;50.738;7.122;2022-07-29T10:54:41;26.80;99.90
4763;DHT22;2395;50.738;7.122;2022-07-29T10:57:12;26.90;99.90
4763;DHT22;2395;50.738;7.122;2022-07-29T10:59:42;26.80;99.90
4763;DHT22;2395;50.738;7.122;2022-07-29T11:02:42;26.70;99.90
4763;DHT22;2395;50.738;7.122;2022-07-29T11:05:17;26.50;99.90
4763;DHT22;2395;50.738;7.122;2022-07-29T11:08:16;26.90;99.90
4763;DHT22;2395;50.738;7.122;2022-07-29T11:10:53;27.00;99.90
4763;DHT22;2395;50.738;7.122;2022-07-29T11:13:54;26.80;99.90
4763;DHT22;2395;50.738;7.122;2022-07-29T11:16:25;26.90;99.90
4763;DHT22;2395;50.738;7.122;2022-07-29T11:19:23;26.80;99.90
4763;DHT22;2395;50.738;7.122;2022-07-29T11:21:50;26.70;99.90
4763;DHT22;2395;50.738;7.122;2022-07-29T11:24:20;26.80;99.90
4763;DHT22;2395;50.738;7.122;2022-07-29T11:27:14;26.90;99.90
4763;DHT22;2395;50.738;7.122;2022-07-29T11:29:53;27.00;99.90
4763;DHT22;2395;50.738;7.122;2022-07-29T11:32:24;27.30;99.90
4763;DHT22;2395;50.738;7.122;2022-07-29T11:35:16;27.50;99.90
4763;DHT22;2395;50.738;7.122;2022-07-29T11:37:46;27.60;99.90
4763;DHT22;2395;50.738;7.122;2022-07-29T11:40:17;27.60;99.90
4763;DHT22;2395;50.738;7.122;2022-07-29T11:42:48;27.80;99.90
4763;DHT22;2395;50.738;7.122;2022-07-29T11:45:31;27.80;99.90
4763;DHT22;2395;50.738;7.122;2022-07-29T11:48:17;27.80;99.90
4763;DHT22;2395;50.738;7.122;2022-07-29T11:50:45;27.90;99.90
4763;DHT22;2395;50.738;7.122;2022-07-29T11:53:13;28.00;99.90
4763;DHT22;2395;50.738;7.122;2022-07-29T11:55:42;28.20;99.90
4763;DHT22;2395;50.738;7.122;2022-07-29T11:58:09;28.10;99.90
4763;DHT22;2395;50.738;7.122;2022-07-29T12:00:37;28.20;99.90
4763;DHT22;2395;50.738;7.122;2022-07-29T12:03:07;27.80;99.90
4763;DHT22;2395;50.738;7.122;2022-07-29T12:05:39;27.80;99.90
4763;DHT22;2395;50.738;7.122;2022-07-29T12:08:09;27.70;99.90
4763;DHT22;2395;50.738;7.122;2022-07-29T12:10:38;27.70;99.90
4763;DHT22;2395;50.738;7.122;2022-07-29T12:13:06;27.80;99.90
4763;DHT22;2395;50.738;7.122;2022-07-29T12:15:34;27.70;99.90
4763;DHT22;2395;50.738;7.122;2022-07-29T12:18:10;27.90;99.90
4763;DHT22;2395;50.738;7.122;2022-07-29T12:20:39;27.70;99.90
4763;DHT22;2395;50.738;7.122;2022-07-29T12:23:08;27.80;99.90
4763;DHT22;2395;50.738;7.122;2022-07-29T12:25:37;27.90;99.90
4763;DHT22;2395;50.738;7.122;2022-07-29T12:28:07;28.00;99.90
4763;DHT22;2395;50.738;7.122;2022-07-29T12:30:36;28.40;99.90
4763;DHT22;2395;50.738;7.122;2022-07-29T12:33:18;28.60;99.80
4763;DHT22;2395;50.738;7.122;2022-07-29T12:35:50;28.30;99.50
4763;DHT22;2395;50.738;7.122;2022-07-29T12:38:19;28.00;99.90
4763;DHT22;2395;50.738;7.122;2022-07-29T12:40:48;28.20;99.90
4763;DHT22;2395;50.738;7.122;2022-07-29T12:43:18;28.40;99.90
4763;DHT22;2395;50.738;7.122;2022-07-29T12:45:48;28.40;99.80
4763;DHT22;2395;50.738;7.122;2022-07-29T12:48:17;28.30;99.30
4763;DHT22;2395;50.738;7.122;2022-07-29T12:51:01;28.10;99.60
4763;DHT22;2395;50.738;7.122;2022-07-29T12:53:30;27.90;99.90
4763;DHT22;2395;50.738;7.122;2022-07-29T12:55:58;27.90;99.90
4763;DHT22;2395;50.738;7.122;2022-07-29T13:02:22;27.90;99.90
4763;DHT22;2395;50.738;7.122;2022-07-29T13:05:11;28.40;99.90
4763;DHT22;2395;50.738;7.122;2022-07-29T13:08:17;28.60;99.90
4763;DHT22;2395;50.738;7.122;2022-07-29T13:10:46;28.50;99.60
4763;DHT22;2395;50.738;7.122;2022-07-29T13:13:14;28.20;99.90
4763;DHT22;2395;50.738;7.122;2022-07-29T13:15:43;28.00;99.90
4763;DHT22;2395;50.738;7.122;2022-07-29T13:18:28;27.90;99.90
4763;DHT22;2395;50.738;7.122;2022-07-29T13:20:58;27.90;99.90
4763;DHT22;2395;50.738;7.122;2022-07-29T13:23:38;28.10;99.90
4763;DHT22;2395;50.738;7.122;2022-07-29T13:26:06;28.40;99.90
4763;DHT22;2395;50.738;7.122;2022-07-29T13:28:33;28.10;99.90
4763;DHT22;2395;50.738;7.122;2022-07-29T13:31:01;28.30;99.90
4763;DHT22;2395;50.738;7.122;2022-07-29T13:33:28;28.60;99.40
4763;DHT22;2395;50.738;7.122;2022-07-29T13:35:55;28.70;99.50
4763;DHT22;2395;50.738;7.122;2022-07-29T13:38:22;29.00;98.80
4763;DHT22;2395;50.738;7.122;2022-07-29T13:40:51;29.30;98.80
4763;DHT22;2395;50.738;7.122;2022-07-29T13:43:18;29.10;97.80
4763;DHT22;2395;50.738;7.122;2022-07-29T13:45:45;28.60;98.10
4763;DHT22;2395;50.738;7.122;2022-07-29T13:48:12;28.60;98.10
4763;DHT22;2395;50.738;7.122;2022-07-29T13:50:38;28.70;98.20
4763;DHT22;2395;50.738;7.122;2022-07-29T13:53:06;29.20;98.10
4763;DHT22;2395;50.738;7.122;2022-07-29T13:55:33;29.40;96.90
4763;DHT22;2395;50.738;7.122;2022-07-29T13:58:01;29.50;97.00
4763;DHT22;2395;50.738;7.122;2022-07-29T14:00:28;29.90;96.50
4763;DHT22;2395;50.738;7.122;2022-07-29T14:02:55;30.00;96.40
4763;DHT22;2395;50.738;7.122;2022-07-29T14:05:22;30.20;95.70
4763;DHT22;2395;50.738;7.122;2022-07-29T14:07:49;30.10;95.00
4763;DHT22;2395;50.738;7.122;2022-07-29T14:10:16;30.20;95.40
4763;DHT22;2395;50.738;7.122;2022-07-29T14:12:43;30.60;95.40
4763;DHT22;2395;50.738;7.122;2022-07-29T14:15:11;30.50;93.10
4763;DHT22;2395;50.738;7.122;2022-07-29T14:17:38;30.70;93.00
4763;DHT22;2395;50.738;7.122;2022-07-29T14:20:06;30.70;92.10
4763;DHT22;2395;50.738;7.122;2022-07-29T14:22:33;30.60;93.00
4763;DHT22;2395;50.738;7.122;2022-07-29T14:25:00;30.40;92.30
4763;DHT22;2395;50.738;7.122;2022-07-29T14:27:27;30.40;92.20
4763;DHT22;2395;50.738;7.122;2022-07-29T14:29:54;30.40;92.20
4763;DHT22;2395;50.738;7.122;2022-07-29T14:32:22;30.60;92.00
4763;DHT22;2395;50.738;7.122;2022-07-29T14:34:49;30.90;90.80
4763;DHT22;2395;50.738;7.122;2022-07-29T14:37:16;31.20;90.90
4763;DHT22;2395;50.738;7.122;2022-07-29T14:39:43;31.50;90.00
4763;DHT22;2395;50.738;7.122;2022-07-29T14:42:10;31.80;89.30
4763;DHT22;2395;50.738;7.122;2022-07-29T14:44:38;31.70;90.30
4763;DHT22;2395;50.738;7.122;2022-07-29T14:47:06;31.70;90.10
4763;DHT22;2395;50.738;7.122;2022-07-29T14:49:35;31.30;90.90
4763;DHT22;2395;50.738;7.122;2022-07-29T14:52:03;31.30;91.20
4763;DHT22;2395;50.738;7.122;2022-07-29T14:54:30;31.40;91.10
4763;DHT22;2395;50.738;7.122;2022-07-29T14:56:57;31.50;91.00
4763;DHT22;2395;50.738;7.122;2022-07-29T14:59:24;31.30;90.90
4763;DHT22;2395;50.738;7.122;2022-07-29T15:01:52;31.60;90.50
4763;DHT22;2395;50.738;7.122;2022-07-29T15:04:19;31.40;90.20
4763;DHT22;2395;50.738;7.122;2022-07-29T15:06:47;31.20;90.50
4763;DHT22;2395;50.738;7.122;2022-07-29T15:09:14;31.60;90.50
4763;DHT22;2395;50.738;7.122;2022-07-29T15:11:41;31.70;88.80
4763;DHT22;2395;50.738;7.122;2022-07-29T15:14:09;32.20;88.80
4763;DHT22;2395;50.738;7.122;2022-07-29T15:16:36;32.10;89.50
4763;DHT22;2395;50.738;7.122;2022-07-29T15:19:04;32.10;89.10
4763;DHT22;2395;50.738;7.122;2022-07-29T15:21:31;31.80;87.20
4763;DHT22;2395;50.738;7.122;2022-07-29T15:24:00;31.50;87.90
4763;DHT22;2395;50.738;7.122;2022-07-29T15:26:27;31.90;88.50
4763;DHT22;2395;50.738;7.122;2022-07-29T15:28:54;32.60;87.70
4763;DHT22;2395;50.738;7.122;2022-07-29T15:31:21;32.90;86.70
4763;DHT22;2395;50.738;7.122;2022-07-29T15:33:48;33.20;85.50
4763;DHT22;2395;50.738;7.122;2022-07-29T15:36:15;33.00;84.90
4763;DHT22;2395;50.738;7.122;2022-07-29T15:38:42;33.50;83.10
4763;DHT22;2395;50.738;7.122;2022-07-29T15:41:13;33.60;82.60
4763;DHT22;2395;50.738;7.122;2022-07-29T15:43:43;33.00;82.90
4763;DHT22;2395;50.738;7.122;2022-07-29T15:46:13;32.70;83.60
4763;DHT22;2395;50.738;7.122;2022-07-29T15:48:59;32.80;83.70
4763;DHT22;2395;50.738;7.122;2022-07-29T15:51:26;32.70;83.80
4763;DHT22;2395;50.738;7.122;2022-07-29T15:53:53;32.60;85.20
4763;DHT22;2395;50.738;7.122;2022-07-29T15:56:23;32.80;83.90
4763;DHT22;2395;50.738;7.122;2022-07-29T15:58:58;32.40;83.40
4763;DHT22;2395;50.738;7.122;2022-07-29T16:01:25;32.40;82.80
4763;DHT22;2395;50.738;7.122;2022-07-29T16:03:53;32.80;82.40
4763;DHT22;2395;50.738;7.122;2022-07-29T16:06:20;32.60;82.30
4763;DHT22;2395;50.738;7.122;2022-07-29T16:08:47;32.40;82.80
4763;DHT22;2395;50.738;7.122;2022-07-29T16:11:14;32.30;82.50
4763;DHT22;2395;50.738;7.122;2022-07-29T16:13:42;31.70;83.40
4763;DHT22;2395;50.738;7.122;2022-07-29T16:16:09;32.00;83.00
4763;DHT22;2395;50.738;7.122;2022-07-29T16:18:36;33.00;81.40
4763;DHT22;2395;50.738;7.122;2022-07-29T16:21:03;33.70;80.00
4763;DHT22;2395;50.738;7.122;2022-07-29T16:23:30;34.20;77.60
4763;DHT22;2395;50.738;7.122;2022-07-29T16:25:57;34.50;75.90